createdAt,value
2022-08-11T00:02:01.359Z,98083.86
2022-08-11T00:04:37.162Z,98082.68
2022-08-11T00:07:07.337Z,98079.42
2022-08-11T00:09:39.538Z,98076.16
2022-08-11T00:12:15.189Z,98077.35
2022-08-11T00:14:44.616Z,98073.95
2022-08-11T00:17:16.174Z,98072.32
2022-08-11T00:20:13.297Z,98071.15
2022-08-11T00:22:38.252Z,98071.11
2022-08-11T00:25:12.882Z,98071.64
2022-08-11T00:27:41.791Z,98067.77
2022-08-11T00:30:12.111Z,98065.17
2022-08-11T00:32:44.098Z,98060.54
2022-08-11T00:35:51.763Z,98057.63
2022-08-11T00:38:07.648Z,98059.29
2022-08-11T00:40:55.378Z,98058.68
2022-08-11T00:43:51.612Z,98061.84
2022-08-11T00:46:25.831Z,98063.77
2022-08-11T00:49:12.132Z,98065.77
2022-08-11T00:52:07.849Z,98066.55
2022-08-11T00:55:00.252Z,98065.81
2022-08-11T00:57:38.504Z,98070.89
2022-08-11T01:00:16.533Z,98073.34
2022-08-11T01:03:03.108Z,98072.59
2022-08-11T01:05:46.436Z,98074.19
2022-08-11T01:08:49.362Z,98072.31
2022-08-11T01:11:29.505Z,98071.89
2022-08-11T01:14:35.236Z,98072.04
2022-08-11T01:17:14.140Z,98075.57
2022-08-11T01:20:39.465Z,98071.91
2022-08-11T01:23:35.200Z,98066.48
2022-08-11T01:26:41.674Z,98063.59
2022-08-11T01:29:21.825Z,98064.70
2022-08-11T01:32:03.640Z,98060.03
2022-08-11T01:35:09.270Z,98056.79
2022-08-11T01:38:18.813Z,98051.74
2022-08-11T01:41:21.600Z,98048.09
2022-08-11T01:44:33.501Z,98046.36
2022-08-11T01:47:52.674Z,98044.37
2022-08-11T01:50:40.236Z,98045.88
2022-08-11T01:53:40.028Z,98044.91
2022-08-11T01:56:33.582Z,98046.88
2022-08-11T01:59:34.423Z,98051.42
2022-08-11T02:02:47.880Z,98050.66
2022-08-11T02:06:00.430Z,98044.40
2022-08-11T02:08:44.178Z,98044.02
2022-08-11T02:11:35.556Z,98042.20
2022-08-11T02:14:24.492Z,98039.83
2022-08-11T02:17:20.538Z,98036.67
2022-08-11T02:20:35.327Z,98038.29
2022-08-11T02:24:06.155Z,98038.29
2022-08-11T02:26:23.474Z,98032.98
2022-08-11T02:28:55.952Z,98030.45
2022-08-11T02:32:28.480Z,98028.35
2022-08-11T02:35:14.259Z,98025.38
2022-08-11T02:38:07.793Z,98030.27
2022-08-11T02:40:44.847Z,98034.45
2022-08-11T02:43:31.474Z,98036.38
2022-08-11T02:46:18.698Z,98042.20
2022-08-11T02:49:19.347Z,98044.52
2022-08-11T02:52:05.817Z,98044.95
2022-08-11T02:54:52.731Z,98043.19
2022-08-11T02:57:43.513Z,98043.62
2022-08-11T03:00:17.800Z,98042.30
2022-08-11T03:03:05.837Z,98039.66
2022-08-11T03:05:57.308Z,98037.13
2022-08-11T03:08:51.420Z,98037.98
2022-08-11T03:11:41.274Z,98042.75
2022-08-11T03:14:36.810Z,98042.67
2022-08-11T03:17:29.846Z,98045.09
2022-08-11T03:20:21.809Z,98047.81
2022-08-11T03:23:04.806Z,98048.31
2022-08-11T03:26:02.882Z,98048.43
2022-08-11T03:28:36.589Z,98049.16
2022-08-11T03:31:19.423Z,98043.71
2022-08-11T03:34:06.678Z,98044.70
2022-08-11T03:37:15.138Z,98047.85
2022-08-11T03:40:00.242Z,98053.66
2022-08-11T03:42:39.814Z,98056.27
2022-08-11T03:45:26.856Z,98053.41
2022-08-11T03:48:22.928Z,98049.73
2022-08-11T03:51:15.365Z,98051.42
2022-08-11T03:54:18.415Z,98048.96
2022-08-11T03:57:10.875Z,98045.00
2022-08-11T03:59:45.081Z,98044.27
2022-08-11T04:02:31.994Z,98040.58
2022-08-11T04:05:39.045Z,98041.14
2022-08-11T04:08:34.389Z,98040.98
2022-08-11T04:11:20.314Z,98039.50
2022-08-11T04:14:38.603Z,98035.23
2022-08-11T04:17:40.694Z,98031.97
2022-08-11T04:20:45.572Z,98032.52
2022-08-11T04:24:35.555Z,98030.49
2022-08-11T04:26:40.670Z,98032.69
2022-08-11T04:29:20.951Z,98036.30
2022-08-11T04:32:24.438Z,98036.95
2022-08-11T04:35:29.674Z,98032.85
2022-08-11T04:38:35.016Z,98038.08
2022-08-11T04:41:21.331Z,98037.33
2022-08-11T04:44:32.003Z,98039.14
2022-08-11T04:48:01.475Z,98035.27
2022-08-11T04:51:17.580Z,98041.84
2022-08-11T04:54:11.137Z,98045.41
2022-08-11T04:57:02.082Z,98044.02
2022-08-11T05:00:07.736Z,98042.98
2022-08-11T05:03:00.196Z,98043.23
2022-08-11T05:06:07.057Z,98045.31
2022-08-11T05:09:11.179Z,98042.72
2022-08-11T05:11:49.899Z,98038.41
2022-08-11T05:14:43.673Z,98042.61
2022-08-11T05:17:34.985Z,98042.33
2022-08-11T05:20:22.520Z,98041.16
2022-08-11T05:23:11.279Z,98039.92
2022-08-11T05:26:43.340Z,98041.02
2022-08-11T05:29:20.297Z,98034.70
2022-08-11T05:32:18.108Z,98032.55
2022-08-11T05:34:54.561Z,98034.59
2022-08-11T05:37:34.209Z,98033.78
2022-08-11T05:40:27.370Z,98030.67
2022-08-11T05:43:27.286Z,98032.83
2022-08-11T05:46:22.597Z,98031.75
2022-08-11T05:49:10.820Z,98030.11
2022-08-11T05:52:05.759Z,98024.67
2022-08-11T05:55:05.995Z,98022.27
2022-08-11T05:57:48.589Z,98024.16
2022-08-11T06:00:20.643Z,98022.75
2022-08-11T06:02:56.194Z,98025.83
2022-08-11T06:05:38.454Z,98028.52
2022-08-11T06:08:14.005Z,98021.66
2022-08-11T06:10:44.720Z,98019.73
2022-08-11T06:13:17.521Z,98016.16
2022-08-11T06:15:48.636Z,98017.77
2022-08-11T06:18:17.384Z,98019.08
2022-08-11T06:20:55.198Z,98020.77
2022-08-11T06:23:30.794Z,98019.47
2022-08-11T06:26:00.403Z,98018.38
2022-08-11T06:28:36.100Z,98019.07
2022-08-11T06:31:14.399Z,98020.92
2022-08-11T06:34:04.394Z,98018.03
2022-08-11T06:36:41.897Z,98016.98
2022-08-11T06:39:31.796Z,98019.52
2022-08-11T06:42:07.324Z,98020.70
2022-08-11T06:45:01.916Z,98022.95
2022-08-11T06:47:30.793Z,98022.69
2022-08-11T06:50:19.477Z,98022.40
2022-08-11T06:52:48.616Z,98026.33
2022-08-11T06:55:57.705Z,98026.17
2022-08-11T06:58:49.780Z,98025.46
2022-08-11T07:01:46.835Z,98023.01
2022-08-11T07:04:31.431Z,98022.23
2022-08-11T07:07:44.058Z,98023.29
2022-08-11T07:11:03.119Z,98024.56
2022-08-11T07:13:55.045Z,98024.82
2022-08-11T07:16:29.778Z,98028.86
2022-08-11T07:19:23.291Z,98029.09
2022-08-11T07:22:11.286Z,98029.02
2022-08-11T07:25:11.920Z,98026.95
2022-08-11T07:28:06.834Z,98027.91
2022-08-11T07:30:40.750Z,98024.52
2022-08-11T07:33:10.873Z,98022.27
2022-08-11T07:36:01.161Z,98019.65
2022-08-11T07:38:47.277Z,98017.20
2022-08-11T07:41:17.890Z,98017.83
2022-08-11T07:43:50.533Z,98015.35
2022-08-11T07:46:38.688Z,98014.52
2022-08-11T07:49:28.474Z,98015.50
2022-08-11T07:52:15.694Z,98013.33
2022-08-11T07:54:46.363Z,98009.02
2022-08-11T07:57:59.504Z,98009.43
2022-08-11T08:00:45.549Z,98004.90
2022-08-11T08:03:39.546Z,98005.48
2022-08-11T08:06:42.476Z,98006.23
2022-08-11T08:09:30.632Z,98001.96
2022-08-11T08:12:20.899Z,97999.48
2022-08-11T08:15:09.313Z,97994.27
2022-08-11T08:18:20.879Z,97989.88
2022-08-11T08:20:50.385Z,97990.24
2022-08-11T08:23:39.802Z,97987.77
2022-08-11T08:26:31.295Z,97986.88
2022-08-11T08:29:21.543Z,97982.33
2022-08-11T08:31:51.296Z,97977.84
2022-08-11T08:34:19.876Z,97979.30
2022-08-11T08:36:51.034Z,97979.67
2022-08-11T08:39:23.173Z,97982.16
2022-08-11T08:41:56.330Z,97983.45
2022-08-11T08:44:42.100Z,97979.71
2022-08-11T08:47:42.310Z,97975.88
2022-08-11T08:50:21.645Z,97971.73
2022-08-11T08:53:05.727Z,97970.30
2022-08-11T08:55:35.124Z,97973.20
2022-08-11T08:58:03.865Z,97972.87
2022-08-11T09:00:46.273Z,97968.70
2022-08-11T09:03:39.406Z,97968.17
2022-08-11T09:06:03.428Z,97965.86
2022-08-11T09:08:33.962Z,97969.09
2022-08-11T09:11:24.431Z,97966.43
2022-08-11T09:14:05.039Z,97968.34
2022-08-11T09:16:37.066Z,97969.65
2022-08-11T09:19:07.801Z,97967.58
2022-08-11T09:21:49.216Z,97964.92
2022-08-11T09:24:38.867Z,97962.15
2022-08-11T09:27:08.470Z,97959.64
2022-08-11T09:29:38.694Z,97958.03
2022-08-11T09:32:08.600Z,97953.79
2022-08-11T09:34:39.041Z,97945.62
2022-08-11T09:37:54.326Z,97947.09
2022-08-11T09:40:33.842Z,97946.73
2022-08-11T09:43:25.278Z,97947.05
2022-08-11T09:45:55.582Z,97948.71
2022-08-11T09:48:26.571Z,97945.20
2022-08-11T09:50:57.247Z,97943.78
2022-08-11T09:53:36.856Z,97943.94
2022-08-11T09:57:05.503Z,97945.66
2022-08-11T09:59:34.815Z,97938.98
2022-08-11T10:02:06.891Z,97934.40
2022-08-11T10:04:45.545Z,97934.31
2022-08-11T10:07:17.094Z,97932.67
2022-08-11T10:09:56.560Z,97929.04
2022-08-11T10:12:37.359Z,97931.51
2022-08-11T10:15:28.579Z,97929.73
2022-08-11T10:18:21.520Z,97927.58
2022-08-11T10:20:52.359Z,97926.09
2022-08-11T10:24:01.279Z,97926.91
2022-08-11T10:26:49.126Z,97918.00
2022-08-11T10:29:37.545Z,97918.39
2022-08-11T10:32:33.210Z,97915.95
2022-08-11T10:35:13.792Z,97910.17
2022-08-11T10:38:08.357Z,97910.13
2022-08-11T10:40:35.947Z,97907.23
2022-08-11T10:43:07.205Z,97905.10
2022-08-11T10:45:56.013Z,97903.52
2022-08-11T10:48:29.111Z,97899.73
2022-08-11T10:51:13.967Z,97901.61
2022-08-11T10:54:04.166Z,97900.47
2022-08-11T10:56:55.416Z,97900.61
2022-08-11T10:59:27.853Z,97897.44
2022-08-11T11:01:58.585Z,97894.63
2022-08-11T11:04:58.846Z,97895.13
2022-08-11T11:08:03.440Z,97899.45
2022-08-11T11:10:32.840Z,97897.90
2022-08-11T11:13:19.862Z,97895.10
2022-08-11T11:16:06.973Z,97890.85
2022-08-11T11:18:37.220Z,97891.29
2022-08-11T11:21:14.897Z,97893.65
2022-08-11T11:24:01.807Z,97895.09
2022-08-11T11:26:35.614Z,97895.42
2022-08-11T11:29:19.250Z,97893.16
2022-08-11T11:31:50.565Z,97888.02
2022-08-11T11:34:33.517Z,97888.45
2022-08-11T11:37:04.252Z,97887.79
2022-08-11T11:39:34.009Z,97886.44
2022-08-11T11:42:10.842Z,97879.82
2022-08-11T11:44:40.347Z,97878.63
2022-08-11T11:47:11.306Z,97874.36
2022-08-11T11:49:44.300Z,97878.48
2022-08-11T11:52:19.134Z,97876.05
2022-08-11T11:54:50.546Z,97869.23
2022-08-11T11:57:38.619Z,97862.73
2022-08-11T12:00:33.618Z,97863.94
2022-08-11T12:03:05.619Z,97859.12
2022-08-11T12:05:38.041Z,97860.88
2022-08-11T12:08:23.400Z,97853.70
2022-08-11T12:11:14.139Z,97854.48
2022-08-11T12:13:46.282Z,97854.71
2022-08-11T12:17:27.391Z,97852.34
2022-08-11T12:19:55.852Z,97846.91
2022-08-11T12:22:44.423Z,97843.98
2022-08-11T12:25:31.520Z,97842.92
2022-08-11T12:28:00.244Z,97849.23
2022-08-11T12:30:29.288Z,97849.03
2022-08-11T12:32:57.781Z,97842.30
2022-08-11T12:35:26.980Z,97841.66
2022-08-11T12:38:04.776Z,97839.23
2022-08-11T12:44:06.259Z,97835.22
2022-08-11T12:46:40.101Z,97831.84
2022-08-11T12:49:34.176Z,97827.66
2022-08-11T12:52:15.851Z,97827.81
2022-08-11T12:54:54.671Z,97823.35
2022-08-11T12:57:47.220Z,97823.14
2022-08-11T13:00:35.191Z,97821.90
2022-08-11T13:03:24.417Z,97826.58
2022-08-11T13:05:55.932Z,97823.21
2022-08-11T13:08:26.131Z,97825.52
2022-08-11T13:11:55.468Z,97820.73
2022-08-11T13:14:27.669Z,97817.94
2022-08-11T13:17:14.988Z,97817.36
2022-08-11T13:19:49.567Z,97818.70
2022-08-11T13:22:20.524Z,97815.80
2022-08-11T13:24:50.263Z,97817.40
2022-08-11T13:27:20.895Z,97814.91
2022-08-11T13:29:50.501Z,97817.11
2022-08-11T13:32:22.284Z,97816.09
2022-08-11T13:34:50.644Z,97817.02
2022-08-11T13:37:20.709Z,97815.63
2022-08-11T13:40:10.972Z,97812.05
2022-08-11T13:42:40.845Z,97807.55
2022-08-11T13:45:09.957Z,97808.05
2022-08-11T13:47:39.761Z,97803.88
2022-08-11T13:50:13.686Z,97800.73
2022-08-11T13:52:43.753Z,97793.48
2022-08-11T13:55:50.811Z,97796.98
2022-08-11T13:58:20.467Z,97792.85
2022-08-11T14:01:01.370Z,97796.86
2022-08-11T14:04:30.134Z,97798.10
2022-08-11T14:06:43.989Z,97799.02
2022-08-11T14:09:14.225Z,97798.61
2022-08-11T14:12:21.452Z,97799.66
2022-08-11T14:15:07.811Z,97802.30
2022-08-11T14:17:49.010Z,97807.64
2022-08-11T14:20:39.693Z,97808.19
2022-08-11T14:23:14.333Z,97810.21
2022-08-11T14:26:03.284Z,97809.61
2022-08-11T14:28:44.423Z,97808.59
2022-08-11T14:31:15.833Z,97806.75
2022-08-11T14:34:00.546Z,97799.91
2022-08-11T14:36:34.232Z,97797.55
2022-08-11T14:39:06.133Z,97797.44
2022-08-11T14:42:10.067Z,97793.54
2022-08-11T14:45:05.996Z,97789.98
2022-08-11T14:47:37.910Z,97788.58
2022-08-11T14:50:12.102Z,97786.03
2022-08-11T14:53:01.463Z,97784.50
2022-08-11T14:55:50.999Z,97786.37
2022-08-11T14:58:22.040Z,97785.64
2022-08-11T15:00:54.740Z,97782.29
2022-08-11T15:03:28.100Z,97783.08
2022-08-11T15:06:00.188Z,97785.42
2022-08-11T15:08:51.806Z,97781.48
2022-08-11T15:11:42.203Z,97779.10
2022-08-11T15:14:12.829Z,97780.56
2022-08-11T15:17:02.820Z,97776.86
2022-08-11T15:19:40.381Z,97774.20
2022-08-11T15:22:29.786Z,97775.52
2022-08-11T15:24:59.568Z,97771.27
2022-08-11T15:27:49.590Z,97773.07
2022-08-11T15:30:36.185Z,97773.05
2022-08-11T15:33:27.735Z,97776.49
2022-08-11T15:36:16.877Z,97772.71
2022-08-11T15:38:57.749Z,97765.58
2022-08-11T15:41:58.428Z,97762.33
2022-08-11T15:45:06.057Z,97760.34
2022-08-11T15:47:41.335Z,97757.13
2022-08-11T15:50:20.662Z,97752.28
2022-08-11T15:52:56.620Z,97756.39
2022-08-11T15:55:26.150Z,97755.73
2022-08-11T15:58:14.888Z,97756.80
2022-08-11T16:01:08.641Z,97757.84
2022-08-11T16:04:09.565Z,97757.05
2022-08-11T16:06:49.921Z,97761.77
2022-08-11T16:09:23.812Z,97760.95
2022-08-11T16:11:54.662Z,97760.15
2022-08-11T16:14:43.222Z,97765.76
2022-08-11T16:17:15.261Z,97764.77
2022-08-11T16:19:46.841Z,97764.48
2022-08-11T16:22:20.474Z,97763.86
2022-08-11T16:27:03.321Z,97765.36
2022-08-11T16:27:45.600Z,97764.93
2022-08-11T16:30:15.126Z,97768.77
2022-08-11T16:32:53.192Z,97767.28
2022-08-11T16:35:43.705Z,97764.88
2022-08-11T16:38:32.997Z,97766.81
2022-08-11T16:41:11.821Z,97770.62
2022-08-11T16:44:06.606Z,97771.02
2022-08-11T16:46:54.974Z,97770.91
2022-08-11T16:49:28.523Z,97769.95
2022-08-11T16:52:03.963Z,97768.34
2022-08-11T16:54:35.962Z,97765.97
2022-08-11T16:57:36.077Z,97768.60
2022-08-11T17:00:07.867Z,97771.90
2022-08-11T17:02:58.850Z,97771.33
2022-08-11T17:05:54.322Z,97774.98
2022-08-11T17:08:57.112Z,97776.55
2022-08-11T17:12:06.180Z,97774.06
2022-08-11T17:14:52.272Z,97773.77
2022-08-11T17:17:39.981Z,97774.63
2022-08-11T17:20:43.423Z,97775.45
2022-08-11T17:23:24.075Z,97775.97
2022-08-11T17:26:03.250Z,97777.75
2022-08-11T17:28:35.273Z,97780.21
2022-08-11T17:31:24.743Z,97784.38
2022-08-11T17:34:14.735Z,97787.94
2022-08-11T17:36:45.831Z,97785.11
2022-08-11T17:39:15.731Z,97788.82
2022-08-11T17:42:23.496Z,97789.64
2022-08-11T17:45:10.919Z,97789.66
2022-08-11T17:47:58.953Z,97792.55
2022-08-11T17:50:28.785Z,97795.88
2022-08-11T17:53:28.078Z,97801.14
2022-08-11T17:56:32.808Z,97802.64
2022-08-11T17:59:35.206Z,97803.30
2022-08-11T18:02:34.377Z,97809.88
2022-08-11T18:05:09.579Z,97815.04
2022-08-11T18:08:02.840Z,97817.73
2022-08-11T18:10:51.992Z,97820.55
2022-08-11T18:13:42.138Z,97827.06
2022-08-11T18:16:29.778Z,97829.99
2022-08-11T18:19:16.998Z,97834.27
2022-08-11T18:22:14.422Z,97842.30
2022-08-11T18:25:07.429Z,97844.90
2022-08-11T18:27:56.987Z,97846.73
2022-08-11T18:30:45.537Z,97846.77
2022-08-11T18:33:50.573Z,97847.04
2022-08-11T18:36:44.754Z,97849.69
2022-08-11T18:39:33.305Z,97856.83
2022-08-11T18:42:29.584Z,97861.63
2022-08-11T18:45:21.987Z,97863.05
2022-08-11T18:48:15.455Z,97865.69
2022-08-11T18:51:31.098Z,97871.80
2022-08-11T18:54:16.823Z,97874.30
2022-08-11T18:57:05.683Z,97874.45
2022-08-11T18:59:57.831Z,97874.24
2022-08-11T19:02:48.724Z,97874.86
2022-08-11T19:06:31.816Z,97876.19
2022-08-11T19:08:56.760Z,97882.80
2022-08-11T19:11:45.212Z,97883.84
2022-08-11T19:14:33.863Z,97886.70
2022-08-11T19:17:44.786Z,97888.73
2022-08-11T19:20:36.972Z,97887.71
2022-08-11T19:23:25.629Z,97890.79
2022-08-11T19:26:13.673Z,97891.23
2022-08-11T19:29:03.349Z,97892.27
2022-08-11T19:31:52.003Z,97892.77
2022-08-11T19:34:41.373Z,97900.93
2022-08-11T19:37:29.724Z,97907.05
2022-08-11T19:40:29.027Z,97912.72
2022-08-11T19:43:25.881Z,97913.27
2022-08-11T19:46:16.906Z,97914.23
2022-08-11T19:49:06.255Z,97915.02
2022-08-11T19:51:54.850Z,97915.33
2022-08-11T19:54:47.761Z,97916.37
2022-08-11T19:57:40.108Z,97913.47
2022-08-11T20:00:37.489Z,97910.06
2022-08-11T20:03:25.086Z,97910.11
2022-08-11T20:06:11.698Z,97913.50
2022-08-11T20:09:01.474Z,97911.49
2022-08-11T20:11:57.918Z,97914.79
2022-08-11T20:14:49.433Z,97915.60
2022-08-11T20:17:38.193Z,97918.73
2022-08-11T20:20:26.236Z,97921.66
2022-08-11T20:23:15.805Z,97924.45
2022-08-11T20:26:20.461Z,97925.70
2022-08-11T20:29:11.244Z,97924.63
2022-08-11T20:31:59.352Z,97929.60
2022-08-11T20:34:47.628Z,97930.73
2022-08-11T20:37:36.621Z,97934.71
2022-08-11T20:40:24.252Z,97934.66
2022-08-11T20:43:16.738Z,97937.46
2022-08-11T20:46:21.494Z,97940.92
2022-08-11T20:49:10.798Z,97946.57
2022-08-11T20:52:01.676Z,97949.95
2022-08-11T20:54:55.963Z,97951.80
2022-08-11T20:58:03.942Z,97952.95
2022-08-11T21:00:54.335Z,97957.10
2022-08-11T21:03:52.387Z,97961.10
2022-08-11T21:06:49.188Z,97963.42
2022-08-11T21:09:58.285Z,97966.56
2022-08-11T21:12:50.710Z,97973.59
2022-08-11T21:16:02.942Z,97973.65
2022-08-11T21:18:52.468Z,97975.97
2022-08-11T21:21:45.353Z,97977.31
2022-08-11T21:24:34.364Z,97978.94
2022-08-11T21:27:25.468Z,97978.91
2022-08-11T21:30:14.029Z,97975.67
2022-08-11T21:33:02.679Z,97977.80
2022-08-11T21:35:51.483Z,97982.77
2022-08-11T21:38:38.453Z,97986.83
2022-08-11T21:41:26.362Z,97991.86
2022-08-11T21:44:14.428Z,97990.80
2022-08-11T21:47:01.958Z,97992.02
2022-08-11T21:49:50.204Z,97996.16
2022-08-11T21:52:37.241Z,97995.65
2022-08-11T21:55:24.463Z,97995.98
2022-08-11T21:58:12.479Z,97994.42
2022-08-11T22:00:59.925Z,97999.25
2022-08-11T22:03:49.759Z,98004.05
2022-08-11T22:06:38.854Z,98004.42
2022-08-11T22:09:26.303Z,98010.00
2022-08-11T22:12:34.352Z,98008.73
2022-08-11T22:15:20.377Z,98009.48
2022-08-11T22:18:07.187Z,98008.16
2022-08-11T22:20:55.334Z,98009.36
2022-08-11T22:23:44.184Z,98010.66
2022-08-11T22:26:33.361Z,98010.45
2022-08-11T22:29:20.270Z,98012.48
2022-08-11T22:32:26.741Z,98014.71
2022-08-11T22:35:15.299Z,98011.98
2022-08-11T22:38:04.748Z,98010.57
2022-08-11T22:40:53.325Z,98008.92
2022-08-11T22:43:40.134Z,98010.55
2022-08-11T22:46:26.885Z,98010.59
2022-08-11T22:49:14.935Z,98008.20
2022-08-11T22:52:03.232Z,98008.15
2022-08-11T22:54:51.164Z,98005.70
2022-08-11T22:57:40.129Z,98004.05
2022-08-11T23:00:30.331Z,98005.71
2022-08-11T23:03:36.826Z,98003.99
2022-08-11T23:06:26.577Z,98005.20
2022-08-11T23:09:15.632Z,98002.42
2022-08-11T23:12:07.180Z,97999.48
2022-08-11T23:14:58.372Z,97994.38
2022-08-11T23:17:46.977Z,97992.33
2022-08-11T23:20:38.443Z,97992.33
2022-08-11T23:23:27.823Z,97993.44
2022-08-11T23:26:15.756Z,97991.86
2022-08-11T23:29:05.425Z,97991.89
2022-08-11T23:31:54.969Z,97989.30
2022-08-11T23:35:03.835Z,97987.71
2022-08-11T23:37:52.184Z,97993.07
2022-08-11T23:40:38.731Z,97989.73
2022-08-11T23:43:26.933Z,97991.17
2022-08-11T23:46:13.641Z,97994.08
2022-08-11T23:49:00.764Z,97992.40
2022-08-11T23:51:48.702Z,97991.35
2022-08-11T23:54:37.589Z,97990.93
2022-08-11T23:57:24.978Z,97991.41
